Time;durP1;ratioP1;P1;durP2;ratioP2;P2;SDS_P1;SDS_P2;PMS_P1;PMS_P2;Temp;Humidity;BMP_temperature;BMP_pressure;BME280_temperature;BME280_humidity;BME280_pressure;Samples;Min_cycle;Max_cycle;Signal;HPM_P1;HPM_P2
2024/03/18 00:00:18;;;;;;;0.50;0.40;;;9.70;99.90;;;;;;5078177;28;20436;-83
2024/03/18 00:02:48;;;;;;;4.07;2.80;;;9.70;99.90;;;;;;5077305;28;20447;-82
2024/03/18 00:05:16;;;;;;;3.23;2.97;;;9.60;99.90;;;;;;5078352;28;20789;-84
2024/03/18 00:07:44;;;;;;;1.40;1.30;;;9.60;99.90;;;;;;5077492;28;20453;-83
2024/03/18 00:10:12;;;;;;;1.00;1.00;;;9.50;99.90;;;;;;5077242;28;20437;-83
2024/03/18 00:12:39;;;;;;;8.83;2.43;;;9.50;99.90;;;;;;5076063;28;20441;-83
2024/03/18 00:15:08;;;;;;;2.55;2.45;;;9.30;99.90;;;;;;5077751;28;20515;-83
2024/03/18 00:17:35;;;;;;;1.50;1.40;;;9.30;99.90;;;;;;5076373;28;20229;-83
2024/03/18 00:20:07;;;;;;;1.00;1.00;;;9.30;99.90;;;;;;5076624;28;20191;-83
2024/03/18 00:22:34;;;;;;;0.90;0.90;;;9.20;99.90;;;;;;5076635;28;20437;-83
2024/03/18 00:25:01;;;;;;;4.07;3.47;;;9.20;99.90;;;;;;5077062;28;20447;-84
2024/03/18 00:27:30;;;;;;;1.10;1.00;;;9.20;99.90;;;;;;5077133;28;20526;-83
2024/03/18 00:29:57;;;;;;;4.10;2.73;;;9.20;99.90;;;;;;5076947;28;20486;-83
2024/03/18 00:32:24;;;;;;;3.15;1.58;;;9.10;99.90;;;;;;5077088;28;20436;-82
2024/03/18 00:34:51;;;;;;;0.50;0.40;;;9.10;99.90;;;;;;5076539;28;20205;-82
2024/03/18 00:37:19;;;;;;;8.17;2.97;;;9.10;99.90;;;;;;5076462;28;20214;-83
2024/03/18 00:39:46;;;;;;;2.50;2.30;;;9.10;99.90;;;;;;5075987;28;20433;-82
2024/03/18 00:42:13;;;;;;;2.47;1.70;;;9.00;99.90;;;;;;5076601;28;20443;-82
2024/03/18 00:44:39;;;;;;;1.30;1.20;;;9.00;99.90;;;;;;5076178;28;20437;-83
2024/03/18 00:47:05;;;;;;;9.03;6.07;;;9.00;99.90;;;;;;5076225;28;20428;-82
2024/03/18 00:49:32;;;;;;;1.03;0.70;;;9.00;99.90;;;;;;5075264;28;20685;-82
2024/03/18 00:51:59;;;;;;;2.43;1.27;;;9.00;99.90;;;;;;5076384;28;20455;-82
2024/03/18 00:54:27;;;;;;;1.25;1.13;;;9.00;99.90;;;;;;5076356;28;20432;-83
2024/03/18 00:56:54;;;;;;;0.95;0.95;;;9.10;99.90;;;;;;5076589;28;20791;-82
2024/03/18 00:59:22;;;;;;;3.53;3.13;;;9.10;99.90;;;;;;5076510;28;20593;-83
2024/03/18 01:01:49;;;;;;;3.42;3.03;;;9.20;99.90;;;;;;5075879;28;20209;-82
2024/03/18 01:04:15;;;;;;;0.50;0.40;;;9.20;99.90;;;;;;5075926;28;20565;-82
2024/03/18 01:06:42;;;;;;;0.97;0.93;;;9.20;99.90;;;;;;5075303;28;20437;-82
2024/03/18 01:09:09;;;;;;;2.05;1.90;;;9.20;99.90;;;;;;5074735;28;20457;-82
2024/03/18 01:11:37;;;;;;;0.95;0.85;;;9.20;99.90;;;;;;5076000;28;20244;-82
2024/03/18 01:14:04;;;;;;;1.60;1.15;;;9.20;99.90;;;;;;5075181;28;20217;-82
2024/03/18 01:16:31;;;;;;;1.60;1.50;;;9.20;99.90;;;;;;5075190;28;20695;-82
2024/03/18 01:18:58;;;;;;;2.50;2.40;;;9.20;99.90;;;;;;5074231;28;20214;-82
2024/03/18 01:21:25;;;;;;;0.93;0.93;;;9.20;99.90;;;;;;5073167;28;20483;-82
2024/03/18 01:23:52;;;;;;;8.50;2.03;;;9.20;99.90;;;;;;5074360;28;20576;-82
2024/03/18 01:26:19;;;;;;;1.88;1.27;;;9.20;99.90;;;;;;5074359;28;20191;-82
2024/03/18 01:28:47;;;;;;;1.40;1.40;;;9.20;99.90;;;;;;5074097;28;20207;-82
2024/03/18 01:31:14;;;;;;;1.15;0.70;;;9.20;99.90;;;;;;5074119;28;20248;-82
2024/03/18 01:33:41;;;;;;;1.40;1.20;;;9.20;99.90;;;;;;5073707;28;20221;-82
2024/03/18 01:36:08;;;;;;;0.60;0.50;;;9.20;99.90;;;;;;5074157;28;20198;-83
2024/03/18 01:38:36;;;;;;;0.50;0.50;;;9.20;99.90;;;;;;5073839;28;20218;-82
2024/03/18 01:41:04;;;;;;;1.20;1.00;;;9.20;99.90;;;;;;5073745;28;20248;-82
2024/03/18 01:43:30;;;;;;;3.35;1.08;;;9.30;99.90;;;;;;5073205;28;20198;-83
2024/03/18 01:45:58;;;;;;;0.70;0.70;;;9.20;99.90;;;;;;5072363;28;20198;-82
2024/03/18 01:48:25;;;;;;;0.50;0.50;;;9.20;99.90;;;;;;5079060;28;20214;-83
2024/03/18 01:50:53;;;;;;;0.80;0.80;;;9.30;99.90;;;;;;5078952;28;20545;-82
2024/03/18 01:53:21;;;;;;;2.90;2.50;;;9.40;99.90;;;;;;5076293;28;20289;-83
2024/03/18 01:55:48;;;;;;;0.73;0.73;;;9.40;99.90;;;;;;5076335;28;20436;-83
2024/03/18 01:58:17;;;;;;;1.02;1.00;;;9.30;99.90;;;;;;5075143;28;20879;-83
2024/03/18 02:00:44;;;;;;;0.98;0.98;;;9.30;99.90;;;;;;5073880;28;20669;-83
2024/03/18 02:03:12;;;;;;;1.25;1.15;;;9.40;99.90;;;;;;5073418;28;20198;-83
2024/03/18 02:05:39;;;;;;;3.47;2.63;;;9.40;99.90;;;;;;5072493;28;20201;-84
2024/03/18 02:08:07;;;;;;;0.50;0.50;;;9.30;99.90;;;;;;5072190;28;20217;-84
2024/03/18 02:10:34;;;;;;;0.65;0.65;;;9.40;99.90;;;;;;5072385;28;20955;-84
2024/03/18 02:13:02;;;;;;;0.60;0.60;;;9.40;99.90;;;;;;5079106;28;20203;-84
2024/03/18 02:15:29;;;;;;;2.60;2.40;;;9.40;99.90;;;;;;5080035;28;20437;-84
2024/03/18 02:17:56;;;;;;;0.90;0.90;;;9.50;99.90;;;;;;5077138;28;20480;-83
2024/03/18 02:20:28;;;;;;;2.40;1.53;;;9.50;99.90;;;;;;5078641;28;20435;-83
2024/03/18 02:22:56;;;;;;;1.05;1.05;;;9.50;99.90;;;;;;5083084;28;20443;-83
2024/03/18 02:25:23;;;;;;;0.95;0.77;;;9.40;99.90;;;;;;5088177;28;20278;-83
2024/03/18 02:27:49;;;;;;;1.73;1.63;;;9.40;99.90;;;;;;5087735;28;20242;-83
2024/03/18 02:30:17;;;;;;;3.25;1.45;;;9.40;99.90;;;;;;5087404;28;20428;-83
2024/03/18 02:32:44;;;;;;;1.67;1.50;;;9.40;99.90;;;;;;5084556;28;20201;-84
2024/03/18 02:35:11;;;;;;;1.15;1.05;;;9.30;99.90;;;;;;5085199;28;20642;-84
2024/03/18 02:37:38;;;;;;;3.35;1.27;;;9.30;99.90;;;;;;5080930;28;20219;-83
2024/03/18 02:40:08;;;;;;;2.88;1.50;;;9.40;99.90;;;;;;5077474;28;20201;-83
2024/03/18 02:42:35;;;;;;;2.45;1.52;;;9.40;99.90;;;;;;5076055;28;20543;-84
2024/03/18 02:45:03;;;;;;;0.82;0.82;;;9.40;99.90;;;;;;5075033;28;20190;-82
2024/03/18 02:47:31;;;;;;;0.88;0.88;;;9.40;99.90;;;;;;5075253;28;20242;-83
2024/03/18 02:49:59;;;;;;;0.50;0.47;;;9.40;99.90;;;;;;5075342;28;20195;-83
2024/03/18 02:52:26;;;;;;;0.50;0.47;;;9.40;99.90;;;;;;5074957;28;20451;-83
2024/03/18 02:54:52;;;;;;;0.63;0.63;;;9.40;99.90;;;;;;5084729;28;20203;-84
2024/03/18 02:57:22;;;;;;;2.45;1.25;;;9.40;99.90;;;;;;5084811;28;20218;-84
2024/03/18 02:59:53;;;;;;;0.50;0.50;;;9.40;99.90;;;;;;5085807;28;20198;-84
2024/03/18 03:02:19;;;;;;;2.53;1.07;;;9.50;99.90;;;;;;5085173;28;20194;-84
2024/03/18 03:04:46;;;;;;;0.55;0.55;;;9.50;99.90;;;;;;5085322;28;20463;-84
2024/03/18 03:07:13;;;;;;;4.07;3.75;;;9.50;99.90;;;;;;5083050;28;20214;-84
2024/03/18 03:09:40;;;;;;;0.60;0.60;;;9.50;99.90;;;;;;5085446;28;20205;-84
2024/03/18 03:12:08;;;;;;;0.50;0.50;;;9.50;99.90;;;;;;5085373;28;20195;-84
2024/03/18 03:14:41;;;;;;;0.40;0.40;;;9.50;99.90;;;;;;5084788;28;20198;-84
2024/03/18 03:17:08;;;;;;;6.07;1.65;;;9.50;99.90;;;;;;5084793;28;20195;-84
2024/03/18 03:19:35;;;;;;;0.50;0.50;;;9.50;99.90;;;;;;5084964;28;20215;-84
2024/03/18 03:22:02;;;;;;;0.50;0.40;;;9.50;99.90;;;;;;5085761;28;20267;-84
2024/03/18 03:24:30;;;;;;;2.15;0.85;;;9.50;99.90;;;;;;5085055;28;20799;-84
2024/03/18 03:26:57;;;;;;;0.40;0.40;;;9.50;99.90;;;;;;5085639;28;20195;-84
2024/03/18 03:29:24;;;;;;;1.02;1.02;;;9.50;99.90;;;;;;5084904;28;20190;-84
2024/03/18 03:31:52;;;;;;;0.45;0.40;;;9.50;99.90;;;;;;5083903;28;20228;-84
2024/03/18 03:34:19;;;;;;;5.68;3.20;;;9.50;99.90;;;;;;5084132;28;20190;-85
2024/03/18 03:36:47;;;;;;;1.63;1.53;;;9.50;99.90;;;;;;5083689;28;20202;-86
2024/03/18 03:42:11;;;;;;;0.70;0.70;;;9.60;99.90;;;;;;5003118;28;20205;-86
2024/03/18 03:44:38;;;;;;;0.50;0.40;;;9.50;99.90;;;;;;5005757;28;20720;-85
2024/03/18 03:49:45;;;;;;;1.88;0.98;;;9.50;99.90;;;;;;4723169;26;20223;-86
2024/03/18 03:52:12;;;;;;;0.45;0.40;;;9.50;99.90;;;;;;4986263;28;20206;-87
2024/03/18 03:54:39;;;;;;;0.40;0.40;;;9.50;99.90;;;;;;4987080;28;20204;-86
2024/03/18 04:07:37;;;;;;;0.47;0.40;;;9.50;99.90;;;;;;5950846;23;20249;-86
2024/03/18 04:10:07;;;;;;;0.50;0.40;;;9.50;99.90;;;;;;4985179;28;20513;-85
2024/03/18 04:12:34;;;;;;;0.40;0.40;;;9.50;99.90;;;;;;4984614;28;20193;-86
2024/03/18 04:15:01;;;;;;;2.05;1.95;;;9.60;99.90;;;;;;4985593;28;20445;-85
2024/03/18 04:17:29;;;;;;;0.50;0.40;;;9.60;99.90;;;;;;4984665;28;20581;-85
2024/03/18 04:19:55;;;;;;;4.73;1.23;;;9.60;99.90;;;;;;4985082;28;20437;-86
2024/03/18 04:22:22;;;;;;;0.50;0.40;;;9.60;99.90;;;;;;4984631;28;20452;-85
2024/03/18 04:24:50;;;;;;;0.50;0.50;;;9.60;99.90;;;;;;4984584;28;20464;-86
2024/03/18 04:27:18;;;;;;;0.70;0.70;;;9.60;99.90;;;;;;4985046;28;20467;-86
2024/03/18 04:29:45;;;;;;;0.85;0.82;;;9.70;99.90;;;;;;4984966;28;20438;-86
2024/03/18 04:32:11;;;;;;;0.40;0.40;;;9.70;99.90;;;;;;4985232;28;20197;-86
2024/03/18 04:34:38;;;;;;;0.47;0.47;;;9.70;99.90;;;;;;4985078;28;20202;-86
2024/03/18 04:37:05;;;;;;;1.98;1.75;;;9.70;99.90;;;;;;4984672;28;20447;-86
2024/03/18 04:39:33;;;;;;;0.60;0.60;;;9.70;99.90;;;;;;4983630;28;20217;-86
2024/03/18 04:42:03;;;;;;;1.63;1.52;;;9.70;99.90;;;;;;4984400;28;20445;-87
2024/03/18 04:44:30;;;;;;;1.08;1.08;;;9.70;99.90;;;;;;4983511;28;20206;-86
2024/03/18 04:46:58;;;;;;;0.50;0.40;;;9.80;99.90;;;;;;4985393;28;20205;-86
2024/03/18 04:49:25;;;;;;;2.30;1.83;;;9.80;99.90;;;;;;4984033;28;20281;-86
2024/03/18 04:51:52;;;;;;;0.95;0.95;;;9.70;99.90;;;;;;4983696;28;20449;-85
2024/03/18 04:54:21;;;;;;;1.70;1.67;;;9.70;99.90;;;;;;4983827;28;20202;-85
2024/03/18 04:56:49;;;;;;;5.00;2.47;;;9.70;99.90;;;;;;4983559;28;20447;-86
2024/03/18 04:59:18;;;;;;;0.50;0.40;;;9.70;99.90;;;;;;4983603;28;20544;-86
2024/03/18 05:01:45;;;;;;;0.80;0.80;;;9.70;99.90;;;;;;4983602;28;20201;-86
2024/03/18 05:04:12;;;;;;;0.50;0.40;;;9.70;99.90;;;;;;4983319;28;20288;-86
2024/03/18 05:06:39;;;;;;;0.67;0.60;;;9.70;99.90;;;;;;4982852;28;20208;-85
2024/03/18 05:09:09;;;;;;;1.07;0.63;;;9.70;99.90;;;;;;4982242;28;21164;-85
2024/03/18 05:11:36;;;;;;;0.70;0.57;;;9.70;99.90;;;;;;4982599;28;20425;-84
2024/03/18 05:14:03;;;;;;;1.30;0.90;;;9.70;99.90;;;;;;4981430;28;20444;-85
2024/03/18 05:16:37;;;;;;;1.50;1.42;;;9.70;99.90;;;;;;4980114;28;20229;-84
2024/03/18 05:19:05;;;;;;;0.50;0.50;;;9.70;99.90;;;;;;4980785;28;20225;-85
2024/03/18 05:21:32;;;;;;;0.47;0.40;;;9.70;99.90;;;;;;4981367;28;20201;-85
2024/03/18 05:23:59;;;;;;;1.03;1.00;;;9.80;99.90;;;;;;4979935;28;20443;-86
2024/03/18 05:26:26;;;;;;;0.50;0.50;;;9.80;99.90;;;;;;4981290;28;20472;-86
2024/03/18 05:28:55;;;;;;;3.93;3.63;;;9.80;99.90;;;;;;4979753;28;20210;-84
2024/03/18 05:31:22;;;;;;;1.10;1.10;;;9.80;99.90;;;;;;4981846;28;20441;-84
2024/03/18 05:33:53;;;;;;;5.70;2.47;;;9.70;99.90;;;;;;4981979;28;20437;-84
2024/03/18 05:36:21;;;;;;;3.13;1.90;;;9.80;99.90;;;;;;4981669;28;20193;-84
2024/03/18 05:38:48;;;;;;;2.27;2.07;;;9.80;99.90;;;;;;4982247;28;20492;-86
2024/03/18 05:41:15;;;;;;;3.20;2.60;;;9.90;99.90;;;;;;4982684;28;20448;-84
2024/03/18 05:43:41;;;;;;;2.20;1.13;;;9.90;99.90;;;;;;4986545;28;20442;-86
2024/03/18 05:46:08;;;;;;;0.60;0.60;;;10.00;99.90;;;;;;4994203;28;20441;-88
2024/03/18 05:48:35;;;;;;;0.70;0.70;;;10.00;99.90;;;;;;4996314;28;20459;-91
2024/03/18 05:51:03;;;;;;;0.50;0.50;;;10.00;99.90;;;;;;4996416;28;20461;-88
2024/03/18 05:53:32;;;;;;;1.80;1.20;;;10.10;99.90;;;;;;4987552;28;20456;-87
2024/03/18 05:55:58;;;;;;;0.50;0.50;;;10.00;99.90;;;;;;4987840;28;20496;-87
2024/03/18 05:58:26;;;;;;;1.73;1.73;;;10.10;99.90;;;;;;4986231;28;20840;-86
2024/03/18 06:00:53;;;;;;;0.50;0.40;;;10.00;99.90;;;;;;4981992;28;20943;-85
2024/03/18 06:03:20;;;;;;;1.00;1.00;;;10.10;99.90;;;;;;4982460;28;20539;-87
2024/03/18 06:05:47;;;;;;;1.23;1.17;;;10.10;99.90;;;;;;4980998;28;20445;-84
2024/03/18 06:08:16;;;;;;;5.23;4.73;;;10.20;99.90;;;;;;4980528;28;20909;-85
2024/03/18 06:10:45;;;;;;;1.77;1.67;;;10.20;99.90;;;;;;4981263;28;20445;-84
2024/03/18 06:13:11;;;;;;;0.50;0.50;;;10.20;99.90;;;;;;4980128;28;20595;-85
2024/03/18 06:15:38;;;;;;;2.10;2.00;;;10.20;99.90;;;;;;4980370;28;20810;-84
2024/03/18 06:18:05;;;;;;;6.00;2.20;;;10.10;99.90;;;;;;4977933;28;20483;-85
2024/03/18 06:20:32;;;;;;;1.67;1.58;;;10.10;99.90;;;;;;4977754;28;20217;-86
2024/03/18 06:23:00;;;;;;;6.20;5.60;;;10.20;99.90;;;;;;4977139;28;20194;-86
2024/03/18 06:28:12;;;;;;;1.23;1.17;;;10.20;99.90;;;;;;4984359;28;20543;-85
2024/03/18 06:30:39;;;;;;;0.88;0.85;;;10.20;99.90;;;;;;4982635;28;20460;-84
2024/03/18 06:33:06;;;;;;;0.50;0.40;;;10.10;99.90;;;;;;4983268;28;20610;-86
2024/03/18 06:35:33;;;;;;;0.50;0.40;;;10.20;99.90;;;;;;4980956;28;20437;-84
2024/03/18 06:38:00;;;;;;;1.47;1.40;;;10.20;99.90;;;;;;4978841;28;20705;-85
2024/03/18 06:40:28;;;;;;;1.20;1.20;;;10.20;99.90;;;;;;4978644;28;20853;-85
2024/03/18 06:42:56;;;;;;;7.37;5.20;;;10.30;99.90;;;;;;4978237;28;20456;-86
2024/03/18 06:45:24;;;;;;;0.60;0.60;;;10.20;99.90;;;;;;4977993;28;20441;-85
2024/03/18 06:47:50;;;;;;;3.25;1.52;;;10.10;99.90;;;;;;4977978;28;20471;-86
2024/03/18 06:50:17;;;;;;;4.83;1.33;;;10.10;99.90;;;;;;4979675;28;20193;-85
2024/03/18 06:52:44;;;;;;;5.55;2.60;;;10.20;99.90;;;;;;4983386;28;20449;-86
2024/03/18 06:55:11;;;;;;;0.80;0.50;;;10.20;99.90;;;;;;4986792;28;20204;-85
2024/03/18 06:57:43;;;;;;;5.57;5.17;;;10.30;99.90;;;;;;4984272;28;20465;-85
2024/03/18 07:00:11;;;;;;;6.97;3.70;;;10.40;99.90;;;;;;4981650;28;20477;-84
2024/03/18 07:02:39;;;;;;;5.70;3.33;;;10.50;99.90;;;;;;4981234;28;20568;-86
2024/03/18 07:05:08;;;;;;;1.57;1.13;;;10.50;99.90;;;;;;4985072;28;21085;-85
2024/03/18 07:07:35;;;;;;;2.23;1.00;;;10.50;99.90;;;;;;4980503;28;20473;-84
2024/03/18 07:10:04;;;;;;;4.57;4.17;;;10.60;99.90;;;;;;4982531;28;20429;-83
2024/03/18 07:12:30;;;;;;;0.70;0.70;;;10.50;99.90;;;;;;4981143;28;20504;-84
2024/03/18 07:15:01;;;;;;;4.77;2.30;;;10.50;99.90;;;;;;4981721;28;20441;-85
2024/03/18 07:17:28;;;;;;;6.17;2.40;;;10.50;99.90;;;;;;4982496;28;20556;-85
2024/03/18 07:19:54;;;;;;;2.63;2.47;;;10.70;99.90;;;;;;4981688;28;20488;-87
2024/03/18 07:22:21;;;;;;;0.50;0.50;;;10.80;99.90;;;;;;4982323;28;20437;-87
2024/03/18 07:24:48;;;;;;;3.70;3.40;;;11.00;99.90;;;;;;4982133;28;20443;-85
2024/03/18 07:27:14;;;;;;;1.13;1.07;;;11.10;99.90;;;;;;4982884;28;20468;-84
2024/03/18 07:29:41;;;;;;;1.70;1.43;;;11.10;99.90;;;;;;4982708;28;20437;-85
2024/03/18 07:32:11;;;;;;;3.47;3.23;;;11.20;99.90;;;;;;4983290;28;20452;-85
2024/03/18 07:34:38;;;;;;;4.77;3.10;;;11.30;99.90;;;;;;4981447;28;20449;-86
2024/03/18 07:37:05;;;;;;;2.30;2.20;;;11.30;99.90;;;;;;4981735;28;20529;-86
2024/03/18 07:39:34;;;;;;;0.50;0.50;;;11.40;99.90;;;;;;4981884;28;20480;-84
2024/03/18 07:42:03;;;;;;;1.03;0.80;;;11.40;99.90;;;;;;4981951;28;20809;-86
2024/03/18 07:44:30;;;;;;;3.70;1.70;;;11.50;99.90;;;;;;4982443;28;20438;-85
2024/03/18 07:47:03;;;;;;;5.00;1.80;;;11.50;99.90;;;;;;4987581;28;20754;-84
2024/03/18 07:49:31;;;;;;;0.50;0.40;;;11.50;99.90;;;;;;4981361;28;20499;-84
2024/03/18 07:51:58;;;;;;;3.90;3.50;;;11.60;99.90;;;;;;4981801;28;20451;-84
2024/03/18 07:54:25;;;;;;;0.50;0.50;;;11.60;99.90;;;;;;4979921;28;20860;-85
2024/03/18 07:56:52;;;;;;;1.23;1.23;;;11.60;99.90;;;;;;4981259;28;20444;-84
2024/03/18 07:59:18;;;;;;;0.50;0.40;;;11.60;99.90;;;;;;4981627;28;20488;-85
2024/03/18 08:01:46;;;;;;;4.80;4.13;;;11.50;99.90;;;;;;4981120;28;20437;-85
2024/03/18 08:04:15;;;;;;;1.67;1.33;;;11.60;99.90;;;;;;4981240;28;20860;-84
2024/03/18 08:06:46;;;;;;;1.00;0.90;;;11.50;99.90;;;;;;4980860;28;20933;-83
2024/03/18 08:09:14;;;;;;;5.03;2.97;;;11.50;99.90;;;;;;4981184;28;20489;-84
2024/03/18 08:11:42;;;;;;;2.97;1.03;;;11.50;99.90;;;;;;4980859;28;20469;-85
2024/03/18 08:14:09;;;;;;;0.60;0.60;;;11.50;99.90;;;;;;4980317;28;20521;-84
2024/03/18 08:16:37;;;;;;;3.63;2.53;;;11.50;99.90;;;;;;4980926;28;20445;-85
2024/03/18 08:19:04;;;;;;;0.90;0.70;;;11.60;99.90;;;;;;4981105;28;20504;-84
2024/03/18 08:21:31;;;;;;;1.67;1.57;;;11.50;99.90;;;;;;4981017;28;20441;-84
2024/03/18 08:23:59;;;;;;;2.80;2.53;;;11.70;99.90;;;;;;4980537;28;20438;-85
2024/03/18 08:26:28;;;;;;;5.23;2.57;;;11.80;99.90;;;;;;4979705;28;20440;-84
2024/03/18 08:28:54;;;;;;;2.00;1.90;;;12.00;99.90;;;;;;4979515;28;20467;-84
2024/03/18 08:31:22;;;;;;;5.60;3.90;;;12.10;99.90;;;;;;4979618;28;20440;-85
2024/03/18 08:33:52;;;;;;;2.97;2.77;;;12.40;99.90;;;;;;4979440;28;20447;-85
2024/03/18 08:36:20;;;;;;;7.20;3.77;;;12.70;99.90;;;;;;4980954;28;20441;-85
2024/03/18 08:38:47;;;;;;;4.97;3.83;;;13.00;99.90;;;;;;4980262;28;20881;-85
2024/03/18 08:41:15;;;;;;;3.37;2.67;;;12.90;99.90;;;;;;4980022;28;20441;-85
2024/03/18 08:43:42;;;;;;;1.13;1.07;;;12.80;99.90;;;;;;4980628;28;20444;-84
2024/03/18 08:46:10;;;;;;;5.17;3.43;;;12.80;99.90;;;;;;4980776;28;20509;-84
2024/03/18 08:48:37;;;;;;;2.40;2.00;;;12.70;99.90;;;;;;4979227;28;20457;-84
2024/03/18 08:51:04;;;;;;;0.50;0.40;;;12.70;99.90;;;;;;4978985;28;20448;-84
2024/03/18 08:53:31;;;;;;;0.50;0.40;;;12.70;99.90;;;;;;4979685;28;20433;-84
2024/03/18 08:55:58;;;;;;;4.63;4.23;;;12.80;99.90;;;;;;4979071;28;20437;-85
2024/03/18 08:58:28;;;;;;;0.70;0.70;;;12.80;99.90;;;;;;4960218;29;20458;-84
2024/03/18 09:00:56;;;;;;;3.63;2.27;;;12.70;99.90;;;;;;4963516;28;20481;-84
2024/03/18 09:03:23;;;;;;;0.60;0.60;;;12.70;99.90;;;;;;4960788;29;20593;-85
2024/03/18 09:05:55;;;;;;;5.13;2.63;;;12.70;99.90;;;;;;4963264;28;20462;-85
2024/03/18 09:08:23;;;;;;;3.03;2.20;;;12.60;99.90;;;;;;4963520;28;20988;-85
2024/03/18 09:10:54;;;;;;;1.90;1.80;;;12.50;99.90;;;;;;4963770;28;20533;-84
2024/03/18 09:13:23;;;;;;;1.67;1.57;;;12.50;99.90;;;;;;4963124;28;20506;-86
2024/03/18 09:15:52;;;;;;;6.03;5.47;;;12.60;99.90;;;;;;4962618;28;20978;-85
2024/03/18 09:18:22;;;;;;;5.90;3.30;;;12.80;99.90;;;;;;4961845;28;21246;-84
2024/03/18 09:20:51;;;;;;;1.70;1.33;;;13.10;99.90;;;;;;4960974;29;20474;-84
2024/03/18 09:23:18;;;;;;;8.27;3.80;;;13.30;99.90;;;;;;4960585;29;20541;-85
2024/03/18 09:25:46;;;;;;;3.13;2.57;;;13.80;99.90;;;;;;4961505;28;20442;-86
2024/03/18 09:28:13;;;;;;;0.50;0.40;;;14.10;99.90;;;;;;4961921;28;20468;-85
2024/03/18 09:30:40;;;;;;;5.43;3.50;;;14.10;99.90;;;;;;4962281;28;20505;-86
2024/03/18 09:33:09;;;;;;;4.63;3.90;;;14.10;99.90;;;;;;4961233;29;20501;-85
2024/03/18 09:35:35;;;;;;;1.47;1.37;;;14.10;99.90;;;;;;4962822;28;20450;-85
2024/03/18 09:38:03;;;;;;;5.30;2.00;;;14.40;99.90;;;;;;4963061;28;20457;-84
2024/03/18 09:40:32;;;;;;;0.50;0.40;;;14.30;99.90;;;;;;4962097;29;20996;-86
2024/03/18 09:42:59;;;;;;;5.40;5.03;;;14.40;99.90;;;;;;4965620;28;20491;-84
2024/03/18 09:45:26;;;;;;;0.50;0.40;;;14.70;99.90;;;;;;4974332;28;20438;-84
2024/03/18 09:47:55;;;;;;;0.50;0.37;;;14.80;99.90;;;;;;4971921;28;20475;-85
2024/03/18 09:50:24;;;;;;;5.20;2.60;;;15.10;99.90;;;;;;4970570;28;20440;-86
2024/03/18 09:52:55;;;;;;;0.70;0.70;;;15.70;99.90;;;;;;4962412;28;20439;-84
2024/03/18 09:55:24;;;;;;;0.80;0.80;;;16.10;99.90;;;;;;4962096;28;20439;-86
2024/03/18 09:57:54;;;;;;;7.60;3.27;;;16.70;99.90;;;;;;4963286;28;20472;-85
2024/03/18 10:00:24;;;;;;;2.63;0.70;;;16.40;99.90;;;;;;4962453;28;20483;-86
2024/03/18 10:02:51;;;;;;;7.40;4.53;;;16.20;99.90;;;;;;4961790;28;20446;-86
2024/03/18 10:05:21;;;;;;;0.63;0.60;;;16.10;99.90;;;;;;4962092;28;20444;-86
2024/03/18 10:07:55;;;;;;;0.50;0.30;;;16.70;99.90;;;;;;4961611;28;20537;-84
2024/03/18 10:10:23;;;;;;;1.03;0.90;;;17.60;99.90;;;;;;4961722;29;20444;-85
2024/03/18 10:12:49;;;;;;;7.43;4.93;;;19.00;99.90;;;;;;4961749;28;20533;-84
2024/03/18 10:15:18;;;;;;;0.70;0.70;;;19.70;99.90;;;;;;4964445;28;20439;-83
2024/03/18 10:17:45;;;;;;;0.97;0.93;;;18.80;99.90;;;;;;4962786;29;20462;-83
2024/03/18 10:20:20;;;;;;;7.50;0.73;;;17.70;99.90;;;;;;4962813;29;21022;-84
2024/03/18 10:22:52;;;;;;;7.73;3.03;;;17.00;99.90;;;;;;4963299;28;20537;-83
2024/03/18 10:25:26;;;;;;;1.40;1.30;;;16.50;99.90;;;;;;4964231;28;20452;-82
2024/03/18 10:27:55;;;;;;;0.50;0.40;;;16.20;99.90;;;;;;4964528;28;20464;-83
2024/03/18 10:30:24;;;;;;;0.50;0.40;;;16.10;99.90;;;;;;4965063;28;20525;-83
2024/03/18 10:32:51;;;;;;;0.60;0.60;;;16.00;99.90;;;;;;4963056;28;20439;-84
2024/03/18 10:35:26;;;;;;;0.50;0.40;;;16.10;99.90;;;;;;4965298;28;20472;-84
2024/03/18 10:38:01;;;;;;;1.43;0.90;;;15.90;99.90;;;;;;4967206;28;20458;-83
2024/03/18 10:40:34;;;;;;;0.63;0.43;;;15.60;99.90;;;;;;4964364;28;20477;-84
2024/03/18 10:43:03;;;;;;;0.50;0.40;;;15.60;99.90;;;;;;4965284;28;20803;-83
2024/03/18 10:45:31;;;;;;;1.07;1.07;;;15.70;99.90;;;;;;4962331;28;20883;-84
2024/03/18 10:48:00;;;;;;;1.67;1.57;;;15.90;99.90;;;;;;4971675;28;20470;-85
2024/03/18 10:50:30;;;;;;;0.50;0.40;;;16.10;99.90;;;;;;4981235;28;20429;-85
2024/03/18 10:53:00;;;;;;;0.50;0.43;;;16.40;99.90;;;;;;4981289;28;20431;-84
2024/03/18 10:55:32;;;;;;;0.63;0.63;;;16.90;99.90;;;;;;4975306;28;20410;-84
2024/03/18 10:58:02;;;;;;;0.50;0.40;;;16.90;99.90;;;;;;4963922;28;20477;-84
2024/03/18 11:00:30;;;;;;;0.50;0.40;;;16.60;99.90;;;;;;4966405;28;20512;-83
2024/03/18 11:03:00;;;;;;;8.23;1.97;;;16.40;99.90;;;;;;4966867;28;20445;-84
2024/03/18 11:05:29;;;;;;;1.17;0.80;;;16.40;99.90;;;;;;4966316;28;20441;-86
2024/03/18 11:08:02;;;;;;;0.50;0.40;;;16.30;99.90;;;;;;4964551;29;20471;-83
2024/03/18 11:10:29;;;;;;;1.67;1.10;;;16.00;99.90;;;;;;4966704;28;20416;-84
2024/03/18 11:13:07;;;;;;;0.50;0.37;;;16.00;99.90;;;;;;4966051;28;20440;-84
2024/03/18 11:15:34;;;;;;;0.50;0.40;;;15.80;99.90;;;;;;4966333;28;20432;-84
2024/03/18 11:18:06;;;;;;;1.77;0.87;;;15.90;99.90;;;;;;4965037;28;20533;-84
2024/03/18 11:20:45;;;;;;;2.87;1.43;;;16.10;99.90;;;;;;4963311;29;20477;-85
2024/03/18 11:23:20;;;;;;;1.73;1.13;;;16.10;99.90;;;;;;4964448;28;20485;-86
2024/03/18 11:26:04;;;;;;;0.50;0.40;;;16.00;99.90;;;;;;4965329;28;20817;-85
2024/03/18 11:28:35;;;;;;;0.70;0.70;;;16.30;99.90;;;;;;4964602;28;20465;-85
2024/03/18 11:31:08;;;;;;;0.50;0.50;;;16.80;99.90;;;;;;4964313;28;20445;-85
2024/03/18 11:33:36;;;;;;;0.60;0.57;;;17.60;99.90;;;;;;4964652;28;20520;-85
2024/03/18 11:36:09;;;;;;;0.50;0.40;;;18.40;99.90;;;;;;4964397;28;20812;-84
2024/03/18 11:38:37;;;;;;;0.90;0.90;;;19.20;99.90;;;;;;4964236;28;20494;-85
2024/03/18 11:41:05;;;;;;;0.83;0.67;;;19.00;99.90;;;;;;4963883;28;20765;-84
2024/03/18 11:43:32;;;;;;;0.60;0.50;;;18.60;99.90;;;;;;4963797;28;20450;-83
2024/03/18 11:46:00;;;;;;;0.50;0.30;;;18.20;99.90;;;;;;4963424;28;20480;-84
2024/03/18 11:48:28;;;;;;;0.70;0.70;;;17.60;99.90;;;;;;4964067;28;20473;-84
2024/03/18 11:50:55;;;;;;;3.10;1.27;;;17.20;99.90;;;;;;4962563;28;20552;-84
2024/03/18 11:53:22;;;;;;;0.60;0.40;;;16.80;99.90;;;;;;4961954;28;20452;-84
2024/03/18 11:55:53;;;;;;;1.17;1.17;;;16.60;99.90;;;;;;4960982;29;20440;-84
2024/03/18 11:58:20;;;;;;;0.50;0.40;;;16.50;99.90;;;;;;4962209;28;20523;-85
2024/03/18 12:00:48;;;;;;;1.23;0.60;;;16.60;99.90;;;;;;4962472;28;20485;-84
2024/03/18 12:03:16;;;;;;;0.50;0.40;;;17.10;99.90;;;;;;4961992;28;20449;-84
2024/03/18 12:05:44;;;;;;;0.50;0.40;;;17.90;99.90;;;;;;4962651;28;20530;-84
2024/03/18 12:08:18;;;;;;;1.27;1.17;;;19.00;99.90;;;;;;4962097;28;20538;-83
2024/03/18 12:10:47;;;;;;;1.77;1.67;;;20.20;99.90;;;;;;4963186;28;20438;-82
2024/03/18 12:13:22;;;;;;;2.20;2.00;;;21.10;99.90;;;;;;4961549;28;20502;-85
2024/03/18 12:15:50;;;;;;;0.50;0.40;;;21.00;99.90;;;;;;4961882;28;20444;-85
2024/03/18 12:18:16;;;;;;;0.53;0.47;;;21.10;99.90;;;;;;4961956;28;20466;-83
2024/03/18 12:20:43;;;;;;;1.53;1.43;;;20.60;99.90;;;;;;4961472;28;20471;-83
2024/03/18 12:28:31;;;;;;;1.93;1.70;;;20.00;99.90;;;;;;4961199;28;20442;-83
2024/03/18 12:28:45;;;;;;;0.90;0.60;;;19.10;99.90;;;;;;4962089;29;20520;-84
2024/03/18 12:31:14;;;;;;;0.80;0.80;;;18.70;99.90;;;;;;4963184;28;20449;-84
2024/03/18 12:33:43;;;;;;;0.50;0.40;;;18.30;99.90;;;;;;4964637;28;20456;-85
2024/03/18 12:36:14;;;;;;;0.80;0.80;;;18.20;99.90;;;;;;4963965;28;20526;-84
2024/03/18 12:38:44;;;;;;;0.83;0.83;;;18.00;99.90;;;;;;4963337;29;20900;-84
2024/03/18 12:41:16;;;;;;;3.80;2.00;;;17.90;99.90;;;;;;4964336;28;20488;-84
2024/03/18 12:43:46;;;;;;;0.87;0.87;;;17.20;99.90;;;;;;4967608;29;20519;-83
2024/03/18 12:46:16;;;;;;;3.20;1.23;;;16.70;99.90;;;;;;4967558;28;20483;-85
2024/03/18 12:48:45;;;;;;;0.70;0.70;;;16.40;99.90;;;;;;4964384;29;20540;-84
2024/03/18 12:51:16;;;;;;;0.50;0.40;;;16.20;99.90;;;;;;4968814;29;20897;-83
2024/03/18 12:53:44;;;;;;;1.63;1.53;;;16.10;99.90;;;;;;4971462;28;20532;-85
2024/03/18 12:56:13;;;;;;;0.60;0.50;;;15.90;99.90;;;;;;4966870;28;20450;-85
2024/03/18 12:58:40;;;;;;;1.43;1.33;;;15.70;99.90;;;;;;4966282;28;21010;-83
2024/03/18 13:01:08;;;;;;;1.10;0.90;;;15.60;99.90;;;;;;4968519;28;20475;-86
2024/03/18 13:03:35;;;;;;;6.03;5.37;;;15.50;99.90;;;;;;4964782;28;20476;-84
2024/03/18 13:06:03;;;;;;;2.50;1.90;;;15.30;99.90;;;;;;4964352;28;20446;-85
2024/03/18 13:08:32;;;;;;;0.50;0.40;;;15.00;99.90;;;;;;4966260;28;20509;-82
2024/03/18 13:11:00;;;;;;;1.43;1.33;;;14.80;99.90;;;;;;4964780;28;20444;-84
2024/03/18 13:13:29;;;;;;;1.63;1.27;;;14.70;99.90;;;;;;4964874;28;20458;-81
2024/03/18 13:15:56;;;;;;;5.83;1.40;;;14.70;99.90;;;;;;4965980;28;20447;-82